createdAt,value
2019-03-03T00:01:31.706Z,68.41
2019-03-03T00:03:57.860Z,68.92
2019-03-03T00:06:24.101Z,68.84
2019-03-03T00:08:50.346Z,68.49
2019-03-03T00:11:16.461Z,68.58
2019-03-03T00:13:42.567Z,69.01
2019-03-03T00:16:08.768Z,68.58
2019-03-03T00:18:34.920Z,68.63
2019-03-03T00:21:08.768Z,68.98
2019-03-03T00:23:36.886Z,68.91
2019-03-03T00:26:03.452Z,68.66
2019-03-03T00:28:29.671Z,69.04
2019-03-03T00:30:55.766Z,69.29
2019-03-03T00:33:22.138Z,69.12
2019-03-03T00:35:48.477Z,68.81
2019-03-03T00:38:19.496Z,69.66
2019-03-03T00:40:47.917Z,69.31
2019-03-03T00:43:18.942Z,69.62
2019-03-03T00:46:03.407Z,69.87
2019-03-03T00:48:38.365Z,69.28
2019-03-03T00:51:14.392Z,69.10
2019-03-03T00:53:59.290Z,69.26
2019-03-03T00:56:33.333Z,68.97
2019-03-03T00:59:10.475Z,69.40
2019-03-03T01:01:41.418Z,69.26
2019-03-03T01:04:18.350Z,69.35
2019-03-03T01:06:46.572Z,68.80
2019-03-03T01:09:38.943Z,69.12
2019-03-03T01:12:17.062Z,68.56
2019-03-03T01:14:48.184Z,68.72
2019-03-03T01:17:28.494Z,68.86
2019-03-03T01:19:59.637Z,68.87
2019-03-03T01:22:30.337Z,68.88
2019-03-03T01:24:56.601Z,68.80
2019-03-03T01:27:24.108Z,68.67
2019-03-03T01:29:50.409Z,68.65
2019-03-03T01:32:16.614Z,68.74
2019-03-03T01:34:42.778Z,68.52
2019-03-03T01:37:08.991Z,67.67
2019-03-03T01:39:35.494Z,67.83
2019-03-03T01:42:02.603Z,67.42
2019-03-03T01:44:28.802Z,67.26
2019-03-03T01:46:54.971Z,66.68
2019-03-03T01:49:21.266Z,66.86
2019-03-03T01:51:47.443Z,66.82
2019-03-03T01:54:13.658Z,66.38
2019-03-03T01:56:39.884Z,66.31
2019-03-03T01:59:08.272Z,66.44
2019-03-03T02:01:34.347Z,66.02
2019-03-03T02:04:07.274Z,65.87
2019-03-03T02:06:36.801Z,65.46
2019-03-03T02:09:06.947Z,65.86
2019-03-03T02:11:33.755Z,65.77
2019-03-03T02:14:00.075Z,65.11
2019-03-03T02:16:26.227Z,65.61
2019-03-03T02:18:52.576Z,65.56
2019-03-03T02:21:18.759Z,65.40
2019-03-03T02:23:45.043Z,65.83
2019-03-03T02:26:14.494Z,65.47
2019-03-03T02:28:40.730Z,65.50
2019-03-03T02:31:07.226Z,65.59
2019-03-03T02:33:33.303Z,65.99
2019-03-03T02:35:59.655Z,65.64
2019-03-03T02:38:25.839Z,65.40
2019-03-03T02:40:52.010Z,65.09
2019-03-03T02:43:18.214Z,65.03
2019-03-03T02:45:44.426Z,64.93
2019-03-03T02:48:10.525Z,65.41
2019-03-03T02:50:37.423Z,65.50
2019-03-03T02:53:04.856Z,65.22
2019-03-03T02:55:30.990Z,65.48
2019-03-03T02:57:57.335Z,65.07
2019-03-03T03:00:23.797Z,64.85
2019-03-03T03:02:51.341Z,64.32
2019-03-03T03:05:24.098Z,64.74
2019-03-03T03:07:55.132Z,64.39
2019-03-03T03:10:26.004Z,65.00
2019-03-03T03:12:57.042Z,64.32
2019-03-03T03:15:30.847Z,64.36
2019-03-03T03:17:58.983Z,64.22
2019-03-03T03:20:33.009Z,63.89
2019-03-03T03:23:06.811Z,64.69
2019-03-03T03:25:34.816Z,64.96
2019-03-03T03:28:19.777Z,64.83
2019-03-03T03:30:48.900Z,64.42
2019-03-03T03:33:17.009Z,64.45
2019-03-03T03:35:45.129Z,64.70
2019-03-03T03:38:16.105Z,64.51
2019-03-03T03:40:44.346Z,64.15
2019-03-03T03:43:29.114Z,64.18
2019-03-03T03:46:09.372Z,64.10
2019-03-03T03:48:43.537Z,63.69
2019-03-03T03:51:26.939Z,63.63
2019-03-03T03:54:13.325Z,64.31
2019-03-03T03:56:47.263Z,64.12
2019-03-03T03:59:27.533Z,63.96
2019-03-03T04:01:56.047Z,64.10
2019-03-03T04:04:24.359Z,63.94
2019-03-03T04:06:52.566Z,63.86
2019-03-03T04:09:20.692Z,63.58
2019-03-03T04:11:48.734Z,63.43
2019-03-03T04:14:32.295Z,63.61
2019-03-03T04:17:00.476Z,64.04
2019-03-03T04:19:28.514Z,63.91
2019-03-03T04:21:59.330Z,64.70
2019-03-03T04:24:33.278Z,64.12
2019-03-03T04:27:04.327Z,64.21
2019-03-03T04:29:38.627Z,64.66
2019-03-03T04:32:09.367Z,64.47
2019-03-03T04:34:37.406Z,64.54
2019-03-03T04:37:21.919Z,64.01
2019-03-03T04:39:55.687Z,64.89
2019-03-03T04:42:38.756Z,64.84
2019-03-03T04:45:13.479Z,64.74
2019-03-03T04:47:47.508Z,65.11
2019-03-03T04:50:32.318Z,65.35
2019-03-03T04:53:09.511Z,64.92
2019-03-03T04:55:54.576Z,64.88
2019-03-03T04:58:22.799Z,65.26
2019-03-03T05:00:53.626Z,65.25
2019-03-03T05:03:36.984Z,65.28
2019-03-03T05:06:05.175Z,65.27
2019-03-03T05:08:33.256Z,65.42
2019-03-03T05:11:04.008Z,64.94
2019-03-03T05:13:32.023Z,65.60
2019-03-03T05:16:16.705Z,65.83
2019-03-03T05:18:44.801Z,65.16
2019-03-03T05:21:11.010Z,65.68
2019-03-03T05:23:37.337Z,65.26
2019-03-03T05:26:03.664Z,65.92
2019-03-03T05:28:30.009Z,65.54
2019-03-03T05:30:56.325Z,65.00
2019-03-03T05:33:23.522Z,65.19
2019-03-03T05:35:49.736Z,65.24
2019-03-03T05:38:15.940Z,64.98
2019-03-03T05:40:42.287Z,65.30
2019-03-03T05:43:08.397Z,65.49
2019-03-03T05:45:34.622Z,65.66
2019-03-03T05:48:00.746Z,65.56
2019-03-03T05:50:26.869Z,65.99
2019-03-03T05:52:53.197Z,66.17
2019-03-03T05:55:19.427Z,66.42
2019-03-03T05:57:45.542Z,66.17
2019-03-03T06:00:12.959Z,66.88
2019-03-03T06:02:39.267Z,67.24
2019-03-03T06:05:05.676Z,67.11
2019-03-03T06:07:32.010Z,67.48
2019-03-03T06:09:58.142Z,67.84
2019-03-03T06:12:24.412Z,67.49
2019-03-03T06:14:51.626Z,67.56
2019-03-03T06:17:17.958Z,68.20
2019-03-03T06:19:44.405Z,68.25
2019-03-03T06:22:10.517Z,68.08
2019-03-03T06:24:36.749Z,67.99
2019-03-03T06:27:03.078Z,67.82
2019-03-03T06:29:29.397Z,67.84
2019-03-03T06:31:55.470Z,68.12
2019-03-03T06:34:21.823Z,67.93
2019-03-03T06:36:48.110Z,68.15
2019-03-03T06:39:14.302Z,68.26
2019-03-03T06:41:40.522Z,68.45
2019-03-03T06:44:06.736Z,68.81
2019-03-03T06:46:32.928Z,68.82
2019-03-03T06:48:59.267Z,68.84
2019-03-03T06:51:25.459Z,68.94
2019-03-03T06:53:52.412Z,68.88
2019-03-03T06:56:18.610Z,68.92
2019-03-03T06:58:44.841Z,69.11
2019-03-03T07:01:11.039Z,68.51
2019-03-03T07:03:37.239Z,68.56
2019-03-03T07:06:03.459Z,69.41
2019-03-03T07:08:29.758Z,69.30
2019-03-03T07:10:56.093Z,69.98
2019-03-03T07:13:22.332Z,70.97
2019-03-03T07:15:48.455Z,70.62
2019-03-03T07:18:14.572Z,70.54
2019-03-03T07:20:41.061Z,70.38
2019-03-03T07:23:07.184Z,70.75
2019-03-03T07:25:33.402Z,70.55
2019-03-03T07:27:59.537Z,70.70
2019-03-03T07:30:25.755Z,70.69
2019-03-03T07:33:06.014Z,70.48
2019-03-03T07:35:32.199Z,71.32
2019-03-03T07:37:58.465Z,71.78
2019-03-03T07:40:24.773Z,71.54
2019-03-03T07:42:50.893Z,72.17
2019-03-03T07:45:17.000Z,72.08
2019-03-03T07:47:43.218Z,72.36
2019-03-03T07:50:10.466Z,73.00
2019-03-03T07:52:36.733Z,72.75
2019-03-03T07:55:05.726Z,73.12
2019-03-03T07:57:32.025Z,73.10
2019-03-03T07:59:58.271Z,73.40
2019-03-03T08:02:24.502Z,73.31
2019-03-03T08:04:50.865Z,73.24
2019-03-03T08:07:17.179Z,73.90
2019-03-03T08:09:43.444Z,74.27
2019-03-03T08:12:09.666Z,74.78
2019-03-03T08:14:35.814Z,74.95
2019-03-03T08:17:02.121Z,74.56
2019-03-03T08:19:28.425Z,74.92
2019-03-03T08:21:54.528Z,75.44
2019-03-03T08:24:22.885Z,75.45
2019-03-03T08:26:49.150Z,75.67
2019-03-03T08:29:15.265Z,75.62
2019-03-03T08:31:41.534Z,76.00
2019-03-03T08:34:07.855Z,75.80
2019-03-03T08:36:34.099Z,75.94
2019-03-03T08:39:00.313Z,76.07
2019-03-03T08:41:28.513Z,75.71
2019-03-03T08:43:56.826Z,75.98
2019-03-03T08:46:24.956Z,75.90
2019-03-03T08:49:02.255Z,76.59
2019-03-03T08:51:36.473Z,76.62
2019-03-03T08:54:21.199Z,76.59
2019-03-03T08:56:52.967Z,77.09
2019-03-03T08:59:24.281Z,77.13
2019-03-03T09:02:04.364Z,77.31
2019-03-03T09:04:32.396Z,77.56
2019-03-03T09:07:00.563Z,77.61
2019-03-03T09:09:28.700Z,77.41
2019-03-03T09:12:11.887Z,78.44
2019-03-03T09:14:42.929Z,78.49
2019-03-03T09:17:26.030Z,78.63
2019-03-03T09:19:57.301Z,78.66
2019-03-03T09:22:28.339Z,78.31
2019-03-03T09:25:02.359Z,78.48
2019-03-03T09:27:47.477Z,78.21
2019-03-03T09:30:30.821Z,78.22
2019-03-03T09:33:00.050Z,79.06
2019-03-03T09:35:46.069Z,78.99
2019-03-03T09:38:16.924Z,78.71
2019-03-03T09:40:50.905Z,78.34
2019-03-03T09:43:18.992Z,78.66
2019-03-03T09:45:53.063Z,78.30
2019-03-03T09:48:29.903Z,78.23
2019-03-03T09:51:00.661Z,78.60
2019-03-03T09:53:34.856Z,78.40
2019-03-03T09:56:08.695Z,78.45
2019-03-03T09:58:39.693Z,78.76
2019-03-03T10:01:07.886Z,78.80
2019-03-03T10:03:38.652Z,78.86
2019-03-03T10:06:12.777Z,78.40
2019-03-03T10:08:40.857Z,78.64
2019-03-03T10:11:24.272Z,78.88
2019-03-03T10:13:52.572Z,79.33
2019-03-03T10:16:29.878Z,79.57
2019-03-03T10:19:06.960Z,78.83
2019-03-03T10:21:31.063Z,79.28
2019-03-03T10:24:08.367Z,79.76
2019-03-03T10:26:54.745Z,79.84
2019-03-03T10:29:35.144Z,79.43
2019-03-03T10:32:20.270Z,78.63
2019-03-03T10:34:57.478Z,78.16
2019-03-03T10:37:42.391Z,78.05
2019-03-03T10:40:17.609Z,79.11
2019-03-03T10:42:48.678Z,78.96
2019-03-03T10:45:23.416Z,78.82
2019-03-03T10:47:57.775Z,79.05
2019-03-03T10:50:25.965Z,77.94
2019-03-03T10:52:57.153Z,78.50
2019-03-03T10:55:40.321Z,78.04
2019-03-03T10:58:11.481Z,78.53
2019-03-03T11:00:42.566Z,78.84
2019-03-03T11:03:16.682Z,78.37
2019-03-03T11:06:02.639Z,78.50
2019-03-03T11:08:36.863Z,78.98
2019-03-03T11:11:05.656Z,78.58
2019-03-03T11:13:33.871Z,78.84
2019-03-03T11:16:18.927Z,78.72
2019-03-03T11:18:55.958Z,78.52
2019-03-03T11:21:20.306Z,78.80
2019-03-03T11:23:48.345Z,78.82
2019-03-03T11:26:19.652Z,78.49
2019-03-03T11:29:04.955Z,77.37
2019-03-03T11:31:36.103Z,77.62
2019-03-03T11:34:04.592Z,77.89
2019-03-03T11:36:32.851Z,77.96
2019-03-03T11:39:04.129Z,78.30
2019-03-03T11:41:40.348Z,76.92
2019-03-03T11:44:17.538Z,77.20
2019-03-03T11:46:54.943Z,76.93
2019-03-03T11:49:41.488Z,77.17
2019-03-03T11:52:09.796Z,77.77
2019-03-03T11:57:21.961Z,77.96
2019-03-03T11:59:54.189Z,78.22
2019-03-03T12:02:22.319Z,77.87
2019-03-03T12:04:50.496Z,78.52
2019-03-03T12:07:36.860Z,78.52
2019-03-03T12:10:10.370Z,78.70
2019-03-03T12:12:41.267Z,79.27
2019-03-03T12:15:25.793Z,78.96
2019-03-03T12:18:02.909Z,79.58
2019-03-03T12:20:47.834Z,79.87
2019-03-03T12:23:17.201Z,79.72
2019-03-03T12:26:01.916Z,79.51
2019-03-03T12:28:41.829Z,79.49
2019-03-03T12:31:18.802Z,80.00
2019-03-03T12:33:47.930Z,79.45
2019-03-03T12:36:31.313Z,79.78
2019-03-03T12:39:02.073Z,79.54
2019-03-03T12:41:32.118Z,79.73
2019-03-03T12:44:16.460Z,79.14
2019-03-03T12:46:47.647Z,79.61
2019-03-03T12:49:32.459Z,79.41
2019-03-03T12:52:12.837Z,79.09
2019-03-03T12:54:50.101Z,79.25
2019-03-03T12:57:34.862Z,79.11
2019-03-03T13:00:03.250Z,78.93
2019-03-03T13:02:48.486Z,78.99
2019-03-03T13:05:19.500Z,79.66
2019-03-03T13:07:47.665Z,78.25
2019-03-03T13:10:18.658Z,79.02
2019-03-03T13:12:58.957Z,78.47
2019-03-03T13:15:43.759Z,78.26
2019-03-03T13:18:28.762Z,78.16
2019-03-03T13:20:59.887Z,78.77
2019-03-03T13:23:33.902Z,78.03
2019-03-03T13:26:20.140Z,78.03
2019-03-03T13:29:06.646Z,77.96
2019-03-03T13:31:40.820Z,77.88
2019-03-03T13:34:27.207Z,78.08
2019-03-03T13:36:55.348Z,77.31
2019-03-03T13:39:41.582Z,76.92
2019-03-03T13:42:10.694Z,77.27
2019-03-03T13:44:37.156Z,77.53
2019-03-03T13:47:03.534Z,77.22
2019-03-03T13:49:29.910Z,77.51
2019-03-03T13:51:56.272Z,77.54
2019-03-03T13:54:22.715Z,77.28
2019-03-03T13:56:48.997Z,77.40
2019-03-03T13:59:15.366Z,77.47
2019-03-03T14:01:43.414Z,77.62
2019-03-03T14:04:09.864Z,77.72
2019-03-03T14:06:36.297Z,77.80
2019-03-03T14:09:05.598Z,78.53
2019-03-03T14:11:32.669Z,78.67
2019-03-03T14:13:58.919Z,78.18
2019-03-03T14:16:25.293Z,78.57
2019-03-03T14:18:51.708Z,78.29
2019-03-03T14:21:18.253Z,78.46
2019-03-03T14:23:44.604Z,78.79
2019-03-03T14:26:10.861Z,79.12
2019-03-03T14:28:37.109Z,78.69
2019-03-03T14:31:03.387Z,78.93
2019-03-03T14:33:29.548Z,79.05
2019-03-03T14:35:55.712Z,79.80
2019-03-03T14:38:22.131Z,78.51
2019-03-03T14:40:48.590Z,78.57
2019-03-03T14:43:14.923Z,78.67
2019-03-03T14:45:41.515Z,78.42
2019-03-03T14:48:07.857Z,79.28
2019-03-03T14:50:34.172Z,79.07
2019-03-03T14:53:00.637Z,79.61
2019-03-03T14:55:26.751Z,79.17
2019-03-03T14:57:53.038Z,79.43
2019-03-03T15:00:30.636Z,79.50
2019-03-03T15:02:58.793Z,79.49
2019-03-03T15:05:25.194Z,79.61
2019-03-03T15:07:51.745Z,79.31
2019-03-03T15:10:18.081Z,79.54
2019-03-03T15:12:44.399Z,79.20
2019-03-03T15:15:18.927Z,80.01
2019-03-03T15:17:45.383Z,79.96
2019-03-03T15:20:11.714Z,79.82
2019-03-03T15:22:38.163Z,79.77
2019-03-03T15:25:07.483Z,80.07
2019-03-03T15:27:33.882Z,80.08
2019-03-03T15:30:00.403Z,80.10
2019-03-03T15:32:26.887Z,79.96
2019-03-03T15:34:53.282Z,79.71
2019-03-03T15:37:19.740Z,79.90
2019-03-03T15:39:46.057Z,80.15
2019-03-03T15:42:12.446Z,80.22
2019-03-03T15:44:38.702Z,80.07
2019-03-03T15:47:05.110Z,80.08
2019-03-03T15:49:31.259Z,80.10
2019-03-03T15:51:57.621Z,80.41
2019-03-03T15:54:24.212Z,80.15
2019-03-03T15:56:50.574Z,79.78
2019-03-03T15:59:17.011Z,79.65
2019-03-03T16:01:43.717Z,79.48
2019-03-03T16:04:10.278Z,79.10
2019-03-03T16:06:36.612Z,78.91
2019-03-03T16:09:05.112Z,78.74
2019-03-03T16:11:33.202Z,78.36
2019-03-03T16:13:59.339Z,78.02
2019-03-03T16:16:25.564Z,78.37
2019-03-03T16:18:52.237Z,78.04
2019-03-03T16:21:18.599Z,77.45
2019-03-03T16:23:44.908Z,77.51
2019-03-03T16:26:11.382Z,77.27
2019-03-03T16:28:37.509Z,76.38
2019-03-03T16:31:03.828Z,76.51
2019-03-03T16:33:30.061Z,76.85
2019-03-03T16:35:56.562Z,76.68
2019-03-03T16:38:22.935Z,76.12
2019-03-03T16:40:49.274Z,76.09
2019-03-03T16:43:15.487Z,75.57
2019-03-03T16:45:41.736Z,75.58
2019-03-03T16:48:07.829Z,75.93
2019-03-03T16:50:34.188Z,75.40
2019-03-03T16:53:00.494Z,74.97
2019-03-03T16:55:26.862Z,75.09
2019-03-03T16:57:53.187Z,74.12
2019-03-03T17:00:21.034Z,74.30
2019-03-03T17:02:47.434Z,74.61
2019-03-03T17:05:15.793Z,74.09
2019-03-03T17:07:42.148Z,73.75
2019-03-03T17:10:09.386Z,73.39
2019-03-03T17:12:35.910Z,73.86
2019-03-03T17:15:03.416Z,74.01
2019-03-03T17:17:30.722Z,73.69
2019-03-03T17:19:56.921Z,73.74
2019-03-03T17:22:23.079Z,73.35
2019-03-03T17:24:49.444Z,73.31
2019-03-03T17:27:15.697Z,72.99
2019-03-03T17:29:42.086Z,72.98
2019-03-03T17:32:08.402Z,72.68
2019-03-03T17:34:34.718Z,72.34
2019-03-03T17:37:01.097Z,72.19
2019-03-03T17:39:27.397Z,72.72
2019-03-03T17:41:53.823Z,71.25
2019-03-03T17:44:20.098Z,72.15
2019-03-03T17:46:46.317Z,72.52
2019-03-03T17:49:12.642Z,71.73
2019-03-03T17:51:40.066Z,71.42
2019-03-03T17:54:06.399Z,71.76
2019-03-03T17:56:33.106Z,71.62
2019-03-03T17:58:59.358Z,71.72
2019-03-03T18:01:25.714Z,71.97
2019-03-03T18:03:52.221Z,71.60
2019-03-03T18:06:18.596Z,70.92
2019-03-03T18:08:44.872Z,70.99
2019-03-03T18:11:11.324Z,70.70
2019-03-03T18:13:37.650Z,70.69
2019-03-03T18:16:04.034Z,70.63
2019-03-03T18:18:30.382Z,70.93
2019-03-03T18:20:56.714Z,70.84
2019-03-03T18:23:23.043Z,70.13
2019-03-03T18:25:49.262Z,69.78
2019-03-03T18:28:15.568Z,69.70
2019-03-03T18:30:41.916Z,69.67
2019-03-03T18:33:08.403Z,69.25
2019-03-03T18:35:34.743Z,69.43
2019-03-03T18:38:01.123Z,69.49
2019-03-03T18:40:27.706Z,69.70
2019-03-03T18:42:54.236Z,69.06
2019-03-03T18:45:21.662Z,69.23
2019-03-03T18:47:48.219Z,69.34
2019-03-03T18:50:16.221Z,69.09
2019-03-03T18:52:42.667Z,68.42
2019-03-03T18:55:10.094Z,68.75
2019-03-03T18:57:36.635Z,68.71
2019-03-03T19:00:06.711Z,68.22
2019-03-03T19:02:33.151Z,68.47
2019-03-03T19:05:00.512Z,68.00
2019-03-03T19:07:26.995Z,68.30
2019-03-03T19:09:53.306Z,67.88
2019-03-03T19:12:19.928Z,67.96
2019-03-03T19:14:46.243Z,67.73
2019-03-03T19:17:12.513Z,68.21
2019-03-03T19:19:38.942Z,68.35
2019-03-03T19:22:05.379Z,68.43
2019-03-03T19:24:31.969Z,68.38
2019-03-03T19:26:59.449Z,67.78
2019-03-03T19:29:25.937Z,67.75
2019-03-03T19:31:52.294Z,67.85
2019-03-03T19:34:18.666Z,67.36
2019-03-03T19:36:45.870Z,67.38
2019-03-03T19:39:12.106Z,67.57
2019-03-03T19:41:40.210Z,67.55
2019-03-03T19:44:06.602Z,67.63
2019-03-03T19:46:32.972Z,67.36
2019-03-03T19:48:59.451Z,67.93
2019-03-03T19:51:25.716Z,67.41
2019-03-03T19:53:52.281Z,67.04
2019-03-03T19:56:18.661Z,66.92
2019-03-03T19:58:44.950Z,66.63
2019-03-03T20:01:11.429Z,66.74
2019-03-03T20:03:37.695Z,66.90
2019-03-03T20:06:04.162Z,66.23
2019-03-03T20:08:30.513Z,66.88
2019-03-03T20:10:56.997Z,66.92
2019-03-03T20:13:23.474Z,66.52
2019-03-03T20:15:49.916Z,66.19
2019-03-03T20:18:16.186Z,66.00
2019-03-03T20:20:42.663Z,66.23
2019-03-03T20:23:09.025Z,66.15
2019-03-03T20:25:35.483Z,66.72
2019-03-03T20:28:02.252Z,66.64
2019-03-03T20:30:28.780Z,66.09
2019-03-03T20:32:55.355Z,65.98
2019-03-03T20:35:21.848Z,65.83
2019-03-03T20:37:48.350Z,65.49
2019-03-03T20:40:26.020Z,65.53
2019-03-03T20:42:53.413Z,65.53
2019-03-03T20:45:22.736Z,65.21
2019-03-03T20:47:48.965Z,65.36
2019-03-03T20:50:18.135Z,65.71
2019-03-03T20:52:44.466Z,65.48
2019-03-03T20:55:13.016Z,64.85
2019-03-03T20:57:39.506Z,64.79
2019-03-03T21:00:13.633Z,64.21
2019-03-03T21:02:39.970Z,64.65
2019-03-03T21:05:07.549Z,65.25
2019-03-03T21:07:34.011Z,64.73
2019-03-03T21:10:00.403Z,64.91
2019-03-03T21:12:27.998Z,65.54
2019-03-03T21:14:54.202Z,65.54
2019-03-03T21:17:20.531Z,65.56
2019-03-03T21:19:46.867Z,65.45
2019-03-03T21:22:13.116Z,65.34
2019-03-03T21:24:39.242Z,65.27
2019-03-03T21:27:05.479Z,65.62
2019-03-03T21:29:31.606Z,64.83
2019-03-03T21:31:57.960Z,65.06
2019-03-03T21:34:24.383Z,64.73
2019-03-03T21:36:50.648Z,65.18
2019-03-03T21:39:16.839Z,65.02
2019-03-03T21:41:43.327Z,65.37
2019-03-03T21:44:09.603Z,64.95
2019-03-03T21:46:35.915Z,65.18
2019-03-03T21:49:02.385Z,64.97
2019-03-03T21:51:29.625Z,65.04
2019-03-03T21:53:55.828Z,65.44
2019-03-03T21:56:22.202Z,65.83
2019-03-03T21:58:48.535Z,65.75
2019-03-03T22:01:14.885Z,65.82
2019-03-03T22:03:41.155Z,65.93
2019-03-03T22:06:07.591Z,66.02
2019-03-03T22:08:34.041Z,65.91
2019-03-03T22:11:00.367Z,66.33
2019-03-03T22:13:26.718Z,66.25
2019-03-03T22:15:53.050Z,66.89
2019-03-03T22:18:19.287Z,66.53
2019-03-03T22:20:45.725Z,67.33
2019-03-03T22:23:13.077Z,66.62
2019-03-03T22:25:39.418Z,67.14
2019-03-03T22:28:05.650Z,66.96
2019-03-03T22:30:31.793Z,67.00
2019-03-03T22:32:58.154Z,67.00
2019-03-03T22:35:24.410Z,67.49
2019-03-03T22:37:51.041Z,67.31
2019-03-03T22:40:18.905Z,67.53
2019-03-03T22:42:47.942Z,67.26
2019-03-03T22:45:15.373Z,67.37
2019-03-03T22:47:41.598Z,67.55
2019-03-03T22:50:10.181Z,67.39
2019-03-03T22:52:36.334Z,67.06
2019-03-03T22:55:11.879Z,66.91
2019-03-03T22:57:38.180Z,67.18
2019-03-03T23:00:40.094Z,67.08
2019-03-03T23:03:08.456Z,67.34
2019-03-03T23:06:08.920Z,67.28
2019-03-03T23:08:53.989Z,67.16
2019-03-03T23:11:24.030Z,66.69
2019-03-03T23:13:56.716Z,66.65
2019-03-03T23:16:36.321Z,66.65
2019-03-03T23:19:45.815Z,67.04
2019-03-03T23:22:29.052Z,66.65
2019-03-03T23:25:13.666Z,66.23
2019-03-03T23:27:40.483Z,66.60
2019-03-03T23:30:08.565Z,66.04
2019-03-03T23:32:34.765Z,66.02
2019-03-03T23:35:08.388Z,65.90
2019-03-03T23:37:34.706Z,65.56
2019-03-03T23:40:05.465Z,65.50
2019-03-03T23:42:34.846Z,66.13
2019-03-03T23:45:06.479Z,65.72
2019-03-03T23:47:34.622Z,65.45
2019-03-03T23:50:06.069Z,65.40
2019-03-03T23:52:34.273Z,65.24
2019-03-03T23:55:05.687Z,65.11
2019-03-03T23:57:31.987Z,64.84
2019-03-03T23:59:58.202Z,64.92
